Time;durP1;ratioP1;P1;durP2;ratioP2;P2;SDS_P1;SDS_P2;PMS_P1;PMS_P2;Temp;Humidity;BMP_temperature;BMP_pressure;BME280_temperature;BME280_humidity;BME280_pressure;Samples;Min_cycle;Max_cycle;Signal;HPM_P1;HPM_P2
2021/06/14 00:00:36;;;;;;;10.98;5.43;;;;;;;15.86;63.98;102286.91;5256267;28;20303;-68
2021/06/14 00:03:07;;;;;;;11.90;5.20;;;;;;;15.80;64.88;102290.09;5256701;28;20467;-69
2021/06/14 00:05:43;;;;;;;8.32;5.45;;;;;;;15.84;64.23;102290.66;5256138;28;20031;-68
2021/06/14 00:08:17;;;;;;;9.10;5.53;;;;;;;15.73;65.15;102281.81;5255205;28;20090;-68
2021/06/14 00:10:51;;;;;;;8.15;4.25;;;;;;;15.66;65.08;102283.31;5256666;28;20025;-67
2021/06/14 00:13:25;;;;;;;8.88;5.55;;;;;;;15.63;65.45;102294.09;5256708;28;20120;-68
2021/06/14 00:15:56;;;;;;;8.07;5.57;;;;;;;15.59;65.14;102292.66;5254972;28;20107;-68
2021/06/14 00:18:27;;;;;;;9.32;6.00;;;;;;;15.53;65.68;102287.88;5254808;28;20112;-68
2021/06/14 00:21:05;;;;;;;9.60;6.10;;;;;;;15.56;65.11;102283.19;5256768;28;20099;-68
2021/06/14 00:23:37;;;;;;;23.73;16.02;;;;;;;15.32;66.56;102285.22;5255904;28;20071;-68
2021/06/14 00:26:12;;;;;;;14.45;8.02;;;;;;;15.37;66.25;102277.75;5254181;28;20501;-68
2021/06/14 00:28:44;;;;;;;11.85;6.35;;;;;;;15.28;66.99;102279.34;5256196;28;20033;-68
2021/06/14 00:31:16;;;;;;;9.05;6.28;;;;;;;15.31;66.86;102270.34;5255899;28;20025;-68
2021/06/14 00:33:47;;;;;;;11.65;6.30;;;;;;;15.25;67.41;102269.03;5254334;28;20113;-68
2021/06/14 00:36:19;;;;;;;9.48;6.40;;;;;;;15.21;67.46;102259.69;5255923;28;20382;-68
2021/06/14 00:38:50;;;;;;;9.68;6.30;;;;;;;15.22;67.28;102263.16;5255191;28;20036;-68
2021/06/14 00:41:21;;;;;;;10.13;6.25;;;;;;;15.20;67.94;102258.03;5253472;28;20400;-68
2021/06/14 00:43:52;;;;;;;11.82;6.82;;;;;;;15.14;67.84;102247.97;5254357;28;20123;-68
2021/06/14 00:46:24;;;;;;;10.95;6.07;;;;;;;15.12;68.45;102244.63;5255909;28;20029;-68
2021/06/14 00:48:55;;;;;;;9.70;6.30;;;;;;;15.03;68.47;102234.81;5254700;28;20078;-68
2021/06/14 00:51:26;;;;;;;9.15;5.47;;;;;;;15.03;68.48;102250.63;5256287;28;20025;-68
2021/06/14 00:54:00;;;;;;;9.45;5.97;;;;;;;15.00;68.93;102240.31;5255718;28;20025;-67
2021/06/14 00:56:31;;;;;;;9.93;6.63;;;;;;;14.95;68.78;102239.88;5255889;28;20040;-68
2021/06/14 00:59:03;;;;;;;10.70;6.70;;;;;;;14.91;68.75;102241.09;5253365;28;20029;-68
2021/06/14 01:01:34;;;;;;;10.35;6.60;;;;;;;14.86;69.23;102241.47;5255568;28;20033;-68
2021/06/14 01:04:05;;;;;;;9.15;6.28;;;;;;;14.82;68.72;102234.75;5255665;28;20021;-68
2021/06/14 01:06:37;;;;;;;10.85;6.32;;;;;;;14.79;69.67;102227.09;5249474;28;20025;-68
2021/06/14 01:09:08;;;;;;;8.52;6.57;;;;;;;14.74;69.94;102230.09;5255623;28;20425;-68
2021/06/14 01:11:52;;;;;;;10.15;6.68;;;;;;;14.77;69.50;102221.06;5255275;28;20090;-68
2021/06/14 01:14:30;;;;;;;10.70;7.03;;;;;;;14.66;70.06;102229.88;5253920;28;20036;-68
2021/06/14 01:17:10;;;;;;;12.15;6.70;;;;;;;14.63;69.96;102224.00;5252729;28;20664;-68
2021/06/14 01:20:09;;;;;;;9.43;6.55;;;;;;;14.74;69.23;102219.53;5253198;28;20517;-68
2021/06/14 01:23:19;;;;;;;9.52;6.60;;;;;;;14.71;68.84;102216.31;5255216;28;20075;-68
2021/06/14 01:26:06;;;;;;;12.40;6.55;;;;;;;14.63;70.48;102216.94;5253672;28;20040;-68
2021/06/14 01:28:40;;;;;;;10.88;6.47;;;;;;;14.55;70.50;102216.72;5254213;28;20418;-68
2021/06/14 01:31:11;;;;;;;9.57;6.70;;;;;;;14.49;70.61;102210.09;5246868;28;20029;-69
2021/06/14 01:33:44;;;;;;;8.82;6.43;;;;;;;14.33;71.28;102218.38;5253260;28;20501;-69
2021/06/14 01:36:21;;;;;;;10.17;6.60;;;;;;;14.42;71.21;102210.69;5251730;28;20032;-69
2021/06/14 01:38:55;;;;;;;9.57;6.35;;;;;;;14.43;71.03;102215.00;5256069;28;20044;-69
2021/06/14 01:41:28;;;;;;;9.20;6.60;;;;;;;14.30;71.31;102210.69;5253549;28;20033;-69
2021/06/14 01:44:01;;;;;;;;;;;;;;;14.63;68.17;102203.75;5254411;28;20538;-69
2021/06/14 01:46:36;;;;;;;9.57;6.45;;;;;;;14.32;71.23;102203.53;5252993;28;19916;-69
2021/06/14 01:49:10;;;;;;;11.32;6.47;;;;;;;14.14;71.90;102197.06;5255152;28;20471;-69
2021/06/14 01:51:42;;;;;;;9.80;6.40;;;;;;;14.13;72.09;102195.38;5253734;28;20084;-69
2021/06/14 01:54:14;;;;;;;8.98;6.75;;;;;;;14.05;72.21;102197.75;5252800;28;22026;-69
2021/06/14 01:56:49;;;;;;;7.93;6.82;;;;;;;14.10;72.15;102193.81;5254706;28;20048;-69
2021/06/14 01:59:26;;;;;;;9.00;5.65;;;;;;;14.11;72.00;102187.59;5255002;28;20063;-69
2021/06/14 02:01:58;;;;;;;10.20;6.63;;;;;;;14.11;71.95;102182.31;5252552;28;20526;-69
2021/06/14 02:04:32;;;;;;;11.25;6.47;;;;;;;14.09;72.11;102180.75;5251605;28;20124;-69
2021/06/14 02:07:04;;;;;;;11.75;7.07;;;;;;;14.08;71.93;102173.81;5252939;28;20525;-69
2021/06/14 02:09:35;;;;;;;11.88;6.35;;;;;;;13.97;72.51;102182.53;5253570;28;20134;-68
2021/06/14 02:12:10;;;;;;;9.50;7.10;;;;;;;13.95;72.17;102173.94;5252686;28;20025;-68
2021/06/14 02:14:42;;;;;;;8.02;6.22;;;;;;;13.91;72.67;102179.56;5253561;28;20033;-68
2021/06/14 02:17:20;;;;;;;8.67;5.97;;;;;;;14.02;72.20;102161.13;5254943;28;20049;-68
2021/06/14 02:19:52;;;;;;;9.05;5.80;;;;;;;13.85;72.93;102171.16;5253018;28;20044;-68
2021/06/14 02:22:23;;;;;;;9.00;6.90;;;;;;;13.83;72.71;102167.84;5253442;28;20025;-69
2021/06/14 02:24:54;;;;;;;9.88;6.38;;;;;;;13.84;73.27;102164.22;5253151;28;20079;-68
2021/06/14 02:27:25;;;;;;;9.27;6.80;;;;;;;13.79;73.42;102150.59;5254774;28;20035;-69
2021/06/14 02:29:57;;;;;;;9.82;6.07;;;;;;;13.80;73.54;102159.31;5253216;28;20147;-68
2021/06/14 02:32:28;;;;;;;10.25;6.75;;;;;;;13.81;73.22;102147.81;5253372;28;20040;-68
2021/06/14 02:35:00;;;;;;;10.48;6.13;;;;;;;13.77;73.63;102154.28;5254003;28;20025;-69
2021/06/14 02:37:32;;;;;;;8.57;5.70;;;;;;;13.75;73.63;102138.63;5252832;28;20029;-68
2021/06/14 02:40:07;;;;;;;12.75;6.55;;;;;;;13.78;72.97;102138.34;5253664;28;20389;-69
2021/06/14 02:42:39;;;;;;;8.77;6.00;;;;;;;13.75;73.65;102130.72;5252354;28;20021;-69
2021/06/14 02:45:11;;;;;;;9.32;6.50;;;;;;;13.66;73.95;102128.78;5253446;28;20074;-69
2021/06/14 02:47:45;;;;;;;9.82;5.93;;;;;;;13.74;73.41;102126.38;5252368;28;20072;-69
2021/06/14 02:50:19;;;;;;;9.35;6.32;;;;;;;13.62;73.95;102129.97;5253758;28;20013;-69
2021/06/14 02:52:52;;;;;;;10.43;6.53;;;;;;;13.59;73.73;102130.22;5253722;28;20017;-69
2021/06/14 02:55:29;;;;;;;11.20;6.63;;;;;;;13.59;73.03;102133.66;5253071;28;20031;-69
2021/06/14 02:58:02;;;;;;;8.40;5.95;;;;;;;13.60;73.57;102134.53;5255360;28;20057;-69
2021/06/14 03:00:34;;;;;;;8.90;5.88;;;;;;;13.58;73.71;102133.81;5257444;28;20037;-68
2021/06/14 03:03:06;;;;;;;11.52;6.30;;;;;;;13.51;73.78;102133.44;5258443;28;20021;-68
2021/06/14 03:05:38;;;;;;;8.35;6.38;;;;;;;13.43;73.65;102135.81;5256012;28;20025;-69
2021/06/14 03:08:09;;;;;;;13.05;7.07;;;;;;;13.45;74.08;102138.31;5257733;28;20506;-69
2021/06/14 03:10:41;;;;;;;12.23;6.28;;;;;;;13.40;74.61;102143.94;5258706;28;20013;-69
2021/06/14 03:13:13;;;;;;;9.65;6.55;;;;;;;13.31;74.70;102137.59;5256828;28;20040;-69
2021/06/14 03:15:45;;;;;;;9.77;7.10;;;;;;;13.29;74.97;102138.66;5256022;28;20405;-69
2021/06/14 03:18:18;;;;;;;11.50;7.18;;;;;;;13.23;75.05;102129.44;5257808;28;20021;-69
2021/06/14 03:20:53;;;;;;;11.18;7.10;;;;;;;13.23;75.42;102126.81;5257432;28;20045;-69
2021/06/14 03:23:25;;;;;;;9.57;7.00;;;;;;;13.20;75.23;102132.25;5256621;28;20119;-69
2021/06/14 03:25:56;;;;;;;11.70;7.82;;;;;;;13.15;75.66;102129.16;5256467;28;20032;-69
2021/06/14 03:28:27;;;;;;;10.13;6.43;;;;;;;13.12;75.55;102122.31;5257752;28;20086;-69
2021/06/14 03:31:00;;;;;;;10.02;7.38;;;;;;;13.09;76.40;102117.28;5257348;28;20382;-69
2021/06/14 03:33:31;;;;;;;9.27;6.57;;;;;;;13.13;76.61;102125.78;5255694;28;20029;-68
2021/06/14 03:36:03;;;;;;;10.30;7.35;;;;;;;13.10;76.30;102111.06;5253396;28;20040;-69
2021/06/14 03:38:35;;;;;;;12.82;7.30;;;;;;;13.06;76.44;102119.28;5255536;28;20103;-68
2021/06/14 03:41:07;;;;;;;11.60;7.53;;;;;;;13.05;76.71;102128.16;5255540;28;20028;-68
2021/06/14 03:43:38;;;;;;;11.00;6.43;;;;;;;13.06;76.21;102124.56;5256201;28;20025;-69
2021/06/14 03:46:10;;;;;;;10.18;6.53;;;;;;;13.14;75.96;102130.09;5257230;28;20025;-68
2021/06/14 03:48:42;;;;;;;7.95;6.35;;;;;;;13.20;75.67;102136.69;5256733;28;20032;-68
2021/06/14 03:51:13;;;;;;;9.20;7.38;;;;;;;13.15;76.00;102137.88;5248160;28;20029;-68
2021/06/14 03:53:56;;;;;;;12.70;7.38;;;;;;;13.17;76.34;102139.53;5247986;28;20033;-68
2021/06/14 03:56:30;;;;;;;9.32;7.25;;;;;;;13.08;75.87;102148.97;5250827;28;20082;-67
2021/06/14 03:59:02;;;;;;;10.77;8.10;;;;;;;12.97;76.74;102139.25;5250361;28;20053;-68
2021/06/14 04:01:34;;;;;;;11.97;8.03;;;;;;;12.96;76.74;102142.00;5242769;28;20029;-68
2021/06/14 04:04:17;;;;;;;11.55;8.23;;;;;;;13.01;76.72;102143.31;5251383;28;20087;-67
2021/06/14 04:06:49;;;;;;;;;;;;;;;13.33;73.86;102137.47;5243397;28;20029;-67
2021/06/14 04:09:21;;;;;;;11.27;8.18;;;;;;;13.08;76.42;102143.72;5253337;28;19912;-69
2021/06/14 04:11:53;;;;;;;16.05;8.25;;;;;;;13.14;76.22;102144.09;5255592;28;20031;-68
2021/06/14 04:14:24;;;;;;;13.43;8.82;;;;;;;13.13;76.22;102142.41;5255786;28;20040;-69
2021/06/14 04:16:55;;;;;;;12.50;9.75;;;;;;;13.06;76.68;102141.19;5256765;28;20017;-68
2021/06/14 04:19:27;;;;;;;14.52;9.85;;;;;;;13.09;76.70;102140.97;5252867;28;20056;-68
2021/06/14 04:21:58;;;;;;;15.13;10.13;;;;;;;13.11;76.79;102141.69;5255682;28;20310;-69
2021/06/14 04:24:30;;;;;;;15.60;10.13;;;;;;;13.16;76.78;102143.97;5256677;28;20056;-69
2021/06/14 04:27:01;;;;;;;10.95;9.45;;;;;;;13.24;76.11;102140.81;5255349;28;20501;-69
2021/06/14 04:29:33;;;;;;;15.23;9.80;;;;;;;13.31;76.22;102134.94;5256457;28;20415;-68
2021/06/14 04:32:05;;;;;;;12.75;10.10;;;;;;;13.28;76.40;102136.97;5255439;28;20028;-68
2021/06/14 04:34:36;;;;;;;16.85;10.30;;;;;;;13.39;75.58;102129.94;5254316;28;20143;-69
2021/06/14 04:37:08;;;;;;;12.43;9.30;;;;;;;13.46;75.61;102129.47;5255026;28;20044;-68
2021/06/14 04:39:39;;;;;;;13.30;9.48;;;;;;;13.49;76.18;102134.53;5256674;28;20462;-69
2021/06/14 04:42:11;;;;;;;14.30;10.43;;;;;;;13.49;76.40;102124.00;5256058;28;20032;-68
2021/06/14 04:44:42;;;;;;;14.85;10.82;;;;;;;13.55;76.88;102126.13;5254667;28;20513;-69
2021/06/14 04:47:13;;;;;;;13.43;9.85;;;;;;;13.67;75.74;102133.09;5255741;28;20047;-68
2021/06/14 04:49:45;;;;;;;14.75;10.48;;;;;;;13.68;76.42;102129.50;5256130;28;20210;-69
2021/06/14 04:52:16;;;;;;;16.42;10.32;;;;;;;13.82;76.16;102129.25;5255775;28;20501;-68
2021/06/14 04:54:47;;;;;;;14.25;10.68;;;;;;;13.93;76.78;102131.06;5253691;28;20025;-69
2021/06/14 04:57:18;;;;;;;16.95;9.88;;;;;;;14.00;75.92;102124.34;5254955;28;20025;-68
2021/06/14 04:59:52;;;;;;;15.25;10.50;;;;;;;14.01;75.90;102128.66;5255385;28;20033;-68
2021/06/14 05:02:23;;;;;;;13.70;10.40;;;;;;;14.04;76.29;102131.03;5254307;28;20037;-69
2021/06/14 05:04:54;;;;;;;15.20;10.85;;;;;;;14.08;75.77;102131.66;5255286;28;20489;-68
2021/06/14 05:07:26;;;;;;;19.40;11.02;;;;;;;14.10;75.69;102133.22;5256443;28;20093;-69
2021/06/14 05:09:57;;;;;;;18.40;11.93;;;;;;;14.18;75.31;102129.97;5255567;28;20020;-68
2021/06/14 05:12:28;;;;;;;21.95;12.05;;;;;;;14.23;75.11;102135.69;5253917;28;20017;-68
2021/06/14 05:14:59;;;;;;;20.92;11.48;;;;;;;14.31;75.17;102128.00;5252086;28;20040;-67
2021/06/14 05:17:31;;;;;;;20.15;12.43;;;;;;;14.36;74.96;102130.28;5254209;28;20032;-68
2021/06/14 05:20:04;;;;;;;18.70;12.45;;;;;;;14.42;75.30;102135.06;5251728;28;20565;-67
2021/06/14 05:22:35;;;;;;;18.40;11.65;;;;;;;14.58;74.96;102146.09;5250863;28;20033;-67
2021/06/14 05:25:07;;;;;;;19.90;12.20;;;;;;;14.59;75.41;102133.75;5251120;28;20021;-67
2021/06/14 05:27:38;;;;;;;24.05;13.27;;;;;;;14.73;75.04;102133.44;5247783;28;20036;-67
2021/06/14 05:30:10;;;;;;;17.55;12.30;;;;;;;14.83;75.19;102134.34;5249162;28;20021;-67
2021/06/14 05:32:43;;;;;;;22.90;13.32;;;;;;;14.91;75.96;102135.53;5249311;28;20502;-67
2021/06/14 05:35:15;;;;;;;18.80;13.27;;;;;;;15.02;75.18;102138.13;5247677;28;20044;-67
2021/06/14 05:37:49;;;;;;;24.63;13.55;;;;;;;15.14;75.37;102150.28;5248680;28;20360;-67
2021/06/14 05:40:20;;;;;;;19.40;14.27;;;;;;;15.25;75.05;102152.03;5248989;28;20483;-67
2021/06/14 05:42:52;;;;;;;20.50;14.88;;;;;;;15.32;75.40;102156.66;5254142;28;20032;-67
2021/06/14 05:45:23;;;;;;;23.38;14.82;;;;;;;15.45;73.33;102159.09;5248421;28;20042;-67
2021/06/14 05:47:54;;;;;;;18.10;14.15;;;;;;;15.57;72.34;102151.97;5251072;28;20032;-69
2021/06/14 05:50:26;;;;;;;21.15;13.93;;;;;;;15.66;71.24;102143.28;5251660;28;20379;-67
2021/06/14 05:52:57;;;;;;;26.58;14.18;;;;;;;15.80;70.72;102132.38;5249582;28;21010;-67
2021/06/14 05:55:28;;;;;;;23.65;14.95;;;;;;;15.91;70.62;102123.50;5251629;28;20124;-68
2021/06/14 05:58:00;;;;;;;21.92;13.98;;;;;;;16.01;70.52;102124.34;5246901;28;20095;-67
2021/06/14 06:00:31;;;;;;;22.80;14.30;;;;;;;16.25;69.43;102120.53;5250450;28;20811;-68
2021/06/14 06:03:03;;;;;;;19.23;13.05;;;;;;;16.20;70.56;102115.66;5246789;28;20071;-68
2021/06/14 06:05:34;;;;;;;17.27;11.40;;;;;;;16.70;65.26;102110.25;5248635;28;20064;-69
2021/06/14 06:08:06;;;;;;;22.55;11.23;;;;;;;16.82;64.02;102115.44;5254095;28;20048;-68
2021/06/14 06:10:37;;;;;;;16.63;9.15;;;;;;;17.02;60.98;102109.19;5246301;28;20036;-69
2021/06/14 06:13:10;;;;;;;16.45;10.02;;;;;;;17.12;62.42;102104.72;5249084;28;20613;-69
2021/06/14 06:15:41;;;;;;;15.13;8.65;;;;;;;17.28;61.49;102101.47;5249045;28;20028;-69
2021/06/14 06:18:12;;;;;;;15.65;8.98;;;;;;;17.50;59.57;102089.66;5247684;28;20037;-68
2021/06/14 06:20:44;;;;;;;19.92;10.15;;;;;;;17.80;57.60;102101.03;5248592;28;20392;-68
2021/06/14 06:23:15;;;;;;;14.52;9.68;;;;;;;17.90;57.25;102102.66;5246406;28;20026;-68
2021/06/14 06:25:46;;;;;;;14.75;9.15;;;;;;;18.02;56.75;102102.44;5237087;28;20040;-68
2021/06/14 06:28:18;;;;;;;13.18;8.55;;;;;;;18.16;56.36;102097.47;5231417;28;20038;-68
2021/06/14 06:30:49;;;;;;;16.42;9.23;;;;;;;18.22;56.36;102098.69;5244902;28;20260;-68
2021/06/14 06:33:20;;;;;;;14.10;8.77;;;;;;;18.39;56.03;102084.63;5245418;28;20245;-69
2021/06/14 06:35:52;;;;;;;15.20;9.55;;;;;;;18.55;55.79;102091.06;5248219;28;20089;-68
2021/06/14 06:38:23;;;;;;;19.38;8.60;;;;;;;18.67;55.07;102090.66;5248513;28;20037;-69
2021/06/14 06:40:54;;;;;;;13.95;8.63;;;;;;;18.78;54.48;102088.81;5247784;28;20052;-70
2021/06/14 06:43:25;;;;;;;15.60;8.23;;;;;;;18.76;54.28;102086.31;5245641;28;20044;-69
2021/06/14 06:45:57;;;;;;;12.50;7.90;;;;;;;19.04;53.92;102087.00;5247697;28;20033;-69
2021/06/14 06:48:29;;;;;;;15.63;8.27;;;;;;;19.15;53.35;102092.06;5246354;28;20037;-69
2021/06/14 06:51:00;;;;;;;15.57;8.07;;;;;;;19.22;53.23;102089.63;5247421;28;20383;-69
2021/06/14 06:53:32;;;;;;;15.73;7.47;;;;;;;19.39;52.93;102094.03;5244092;28;20025;-69
2021/06/14 06:56:05;;;;;;;15.95;7.70;;;;;;;19.56;52.76;102097.63;5246559;28;20029;-69
2021/06/14 06:58:36;;;;;;;;;;;;;;;19.75;52.41;102083.28;5244333;28;20036;-69
2021/06/14 07:01:07;;;;;;;13.23;7.50;;;;;;;19.81;50.79;102087.13;5246103;28;19917;-69
2021/06/14 07:03:41;;;;;;;12.93;7.82;;;;;;;19.94;49.77;102087.50;5245233;28;20300;-69
2021/06/14 07:06:12;;;;;;;14.93;8.07;;;;;;;20.03;50.53;102083.03;5246387;28;20520;-70
2021/06/14 07:08:45;;;;;;;14.27;7.97;;;;;;;20.19;49.71;102064.44;5246467;28;20030;-69
2021/06/14 07:11:16;;;;;;;13.48;7.00;;;;;;;20.21;49.91;102066.97;5245118;28;20098;-69
2021/06/14 07:13:47;;;;;;;14.93;7.20;;;;;;;20.46;49.84;102066.00;5247060;28;20332;-70
2021/06/14 07:16:19;;;;;;;12.07;7.80;;;;;;;20.50;48.48;102071.88;5250619;28;20047;-70
2021/06/14 07:18:52;;;;;;;14.77;7.17;;;;;;;20.73;47.73;102070.19;5244160;28;20062;-70
2021/06/14 07:21:23;;;;;;;11.20;6.60;;;;;;;20.83;47.42;102065.50;5249089;28;20118;-70
2021/06/14 07:23:55;;;;;;;15.13;6.83;;;;;;;20.98;46.91;102064.84;5245435;28;20020;-70
2021/06/14 07:26:27;;;;;;;15.20;6.90;;;;;;;21.13;46.11;102066.63;5249012;28;20098;-70
2021/06/14 07:28:58;;;;;;;13.37;6.80;;;;;;;21.21;44.96;102067.63;5243505;28;20028;-70
2021/06/14 07:31:31;;;;;;;10.93;6.03;;;;;;;21.33;44.31;102059.13;5252525;28;21030;-70
2021/06/14 07:34:02;;;;;;;14.27;6.93;;;;;;;21.49;44.82;102063.56;5248697;28;20049;-70
2021/06/14 07:36:35;;;;;;;10.90;5.33;;;;;;;21.67;43.26;102054.50;5248073;28;20080;-70
2021/06/14 07:39:07;;;;;;;10.75;5.70;;;;;;;21.79;41.87;102059.28;5244600;28;20462;-70
2021/06/14 07:41:38;;;;;;;14.10;5.95;;;;;;;21.85;41.85;102053.22;5245567;28;20025;-70
2021/06/14 07:44:10;;;;;;;14.83;5.33;;;;;;;22.02;41.69;102042.47;5250023;28;20036;-70
2021/06/14 07:46:41;;;;;;;12.73;5.80;;;;;;;22.08;40.78;102050.59;5255255;28;20035;-70
2021/06/14 07:49:13;;;;;;;8.80;4.37;;;;;;;22.39;40.12;102049.75;5251389;28;20060;-70
2021/06/14 07:51:45;;;;;;;13.32;4.93;;;;;;;22.43;40.32;102040.38;5251256;28;20025;-70
2021/06/14 07:54:16;;;;;;;10.40;3.93;;;;;;;22.59;39.43;102031.41;5253312;28;20559;-70
2021/06/14 07:56:49;;;;;;;9.50;4.70;;;;;;;22.75;39.92;102030.41;5253641;28;20505;-70
2021/06/14 07:59:20;;;;;;;11.23;5.30;;;;;;;22.98;40.67;102028.53;5253484;28;20986;-70
2021/06/14 08:01:52;;;;;;;11.80;4.53;;;;;;;22.98;40.42;102025.88;5252821;28;20021;-70
2021/06/14 08:04:23;;;;;;;13.03;5.40;;;;;;;23.22;40.87;102023.94;5254629;28;20043;-70
2021/06/14 08:06:54;;;;;;;13.17;5.30;;;;;;;23.20;39.50;102026.78;5250492;28;20029;-70
2021/06/14 08:09:28;;;;;;;7.87;5.00;;;;;;;23.38;40.25;102022.94;5256784;28;20028;-70
2021/06/14 08:11:59;;;;;;;12.05;5.03;;;;;;;23.42;40.02;102017.00;5252733;28;20116;-70
2021/06/14 08:14:30;;;;;;;10.27;5.37;;;;;;;23.65;40.00;102008.03;5252613;28;20032;-70
2021/06/14 08:17:03;;;;;;;11.20;5.03;;;;;;;23.63;38.56;102000.16;5252069;28;20140;-70
2021/06/14 08:27:27;;;;;;;9.80;4.47;;;;;;;24.00;38.00;101992.97;5248986;28;20568;-70
2021/06/14 08:29:58;;;;;;;7.07;4.00;;;;;;;24.32;38.41;101997.00;5247420;28;20045;-69
2021/06/14 08:32:30;;;;;;;9.23;4.17;;;;;;;24.49;37.83;101992.22;5250126;28;20102;-68
2021/06/14 08:35:03;;;;;;;8.47;4.27;;;;;;;24.68;38.11;101996.06;5252479;28;20025;-69
2021/06/14 08:37:35;;;;;;;8.65;3.95;;;;;;;24.60;37.31;102001.56;5248460;28;20075;-69
2021/06/14 08:40:07;;;;;;;9.68;4.13;;;;;;;24.64;36.25;101998.31;5246903;28;20017;-69
2021/06/14 08:42:39;;;;;;;7.72;3.70;;;;;;;24.70;36.34;102000.22;5245176;28;20450;-69
2021/06/14 08:45:12;;;;;;;9.17;3.67;;;;;;;24.87;36.50;102005.25;5252855;28;20024;-67
2021/06/14 08:47:46;;;;;;;6.90;3.80;;;;;;;24.91;36.29;101993.13;5248399;28;20029;-67
2021/06/14 08:50:19;;;;;;;6.80;3.28;;;;;;;25.14;35.76;102001.72;5243574;28;20074;-68
2021/06/14 08:52:52;;;;;;;7.57;3.40;;;;;;;25.31;36.27;101999.56;5251516;28;20661;-67
2021/06/14 08:55:23;;;;;;;;;;;;;;;25.58;35.22;101989.75;5248611;28;20394;-67
2021/06/14 08:57:55;;;;;;;5.32;2.97;;;;;;;25.58;35.30;101989.75;5249110;28;19921;-68
2021/06/14 09:00:29;;;;;;;6.22;3.13;;;;;;;25.71;35.35;101987.09;5255256;28;20132;-69
2021/06/14 09:03:01;;;;;;;9.43;3.20;;;;;;;25.82;34.40;101983.00;5249708;28;20037;-68
2021/06/14 09:05:33;;;;;;;7.40;3.30;;;;;;;25.92;34.56;101980.78;5251770;28;20037;-69
2021/06/14 09:08:07;;;;;;;5.63;3.33;;;;;;;25.94;33.76;101985.94;5250764;28;20029;-67
2021/06/14 09:10:40;;;;;;;7.32;3.65;;;;;;;25.89;34.06;101983.03;5245882;28;20021;-68
2021/06/14 09:13:22;;;;;;;;;;;;;;;26.34;34.44;101989.47;5247289;28;20025;-68
2021/06/14 09:16:03;;;;;;;6.30;3.40;;;;;;;26.30;34.10;101980.19;5251880;28;19927;-68
2021/06/14 09:18:35;;;;;;;7.82;3.45;;;;;;;26.42;32.89;101980.38;5251680;28;20512;-69
2021/06/14 09:21:16;;;;;;;7.65;3.67;;;;;;;26.35;34.75;101982.25;5249641;28;20029;-69
2021/06/14 09:23:50;;;;;;;8.00;3.70;;;;;;;26.48;33.59;101981.44;5248906;28;20071;-69
2021/06/14 09:26:27;;;;;;;7.25;3.10;;;;;;;26.48;33.29;101978.75;5253257;28;20055;-68
2021/06/14 09:29:00;;;;;;;6.00;3.65;;;;;;;26.84;33.79;101975.59;5245545;28;20111;-69
2021/06/14 09:31:45;;;;;;;5.95;3.30;;;;;;;26.91;33.05;101979.09;5253819;28;20024;-68
2021/06/14 09:34:18;;;;;;;8.30;3.33;;;;;;;26.94;32.39;101973.28;5253455;28;20032;-68
2021/06/14 09:37:01;;;;;;;6.22;3.17;;;;;;;26.99;34.58;101968.09;5252780;28;20036;-68
2021/06/14 09:39:39;;;;;;;7.13;3.25;;;;;;;27.05;33.31;101964.56;5249886;28;20551;-68
2021/06/14 09:42:26;;;;;;;8.50;3.63;;;;;;;27.31;33.35;101952.88;5247390;28;20029;-68
2021/06/14 09:45:06;;;;;;;7.75;3.92;;;;;;;27.27;32.29;101948.16;5249636;28;20021;-68
2021/06/14 09:47:38;;;;;;;8.32;3.30;;;;;;;27.26;31.54;101960.78;5251247;28;20115;-69
2021/06/14 09:50:10;;;;;;;5.63;2.97;;;;;;;27.26;32.07;101960.78;5251861;28;20597;-67
2021/06/14 09:52:41;;;;;;;5.65;2.78;;;;;;;27.23;32.38;101957.69;5251620;28;20048;-68
2021/06/14 09:55:17;;;;;;;7.20;2.97;;;;;;;27.37;32.56;101967.34;5249312;28;20034;-67
2021/06/14 09:57:48;;;;;;;5.63;3.00;;;;;;;27.45;31.83;101964.41;5246274;28;20033;-68
2021/06/14 10:00:21;;;;;;;8.93;3.40;;;;;;;27.57;31.97;101964.56;5248224;28;20479;-67
2021/06/14 10:02:58;;;;;;;5.68;3.20;;;;;;;27.77;32.51;101953.69;5249864;28;20037;-69
2021/06/14 10:05:29;;;;;;;6.30;3.35;;;;;;;27.86;31.84;101966.69;5247285;28;20035;-68
2021/06/14 10:08:01;;;;;;;5.53;2.93;;;;;;;28.06;31.92;101963.84;5243938;28;20075;-69
2021/06/14 10:10:32;;;;;;;5.60;3.35;;;;;;;27.95;31.88;101958.31;5241829;28;20190;-68
2021/06/14 10:13:04;;;;;;;5.93;2.93;;;;;;;28.04;31.79;101957.03;5243918;28;20071;-68
2021/06/14 10:15:38;;;;;;;6.77;3.47;;;;;;;28.13;30.94;101956.53;5246241;28;20085;-69
2021/06/14 10:18:11;;;;;;;6.57;2.95;;;;;;;28.30;31.18;101959.50;5250992;28;20029;-69
2021/06/14 10:20:42;;;;;;;;;;;;;;;28.57;30.99;101952.00;5251172;28;20413;-69
2021/06/14 10:23:13;;;;;;;6.43;3.30;;;;;;;28.32;30.44;101957.41;5251846;28;19962;-69
2021/06/14 10:25:45;;;;;;;7.03;3.13;;;;;;;28.25;31.26;101935.06;5252240;28;20052;-68
2021/06/14 10:28:16;;;;;;;4.97;2.93;;;;;;;28.58;31.30;101940.16;5246193;28;20107;-69
2021/06/14 10:30:47;;;;;;;6.90;3.27;;;;;;;28.51;31.29;101954.78;5252578;28;20029;-69
2021/06/14 10:33:24;;;;;;;5.60;3.07;;;;;;;28.68;32.56;101950.47;5249113;28;20063;-69
2021/06/14 10:35:56;;;;;;;8.68;3.45;;;;;;;28.49;31.31;101948.75;5241840;28;20033;-69
2021/06/14 10:38:30;;;;;;;7.05;3.22;;;;;;;28.48;30.44;101941.72;5241895;28;20136;-69
2021/06/14 10:41:01;;;;;;;5.20;3.40;;;;;;;28.55;30.70;101934.41;5241638;28;20056;-68
2021/06/14 10:43:32;;;;;;;6.30;3.23;;;;;;;28.70;30.01;101936.72;5239445;28;20136;-69
2021/06/14 10:46:04;;;;;;;6.43;3.10;;;;;;;28.71;30.75;101932.97;5245742;28;20034;-68
2021/06/14 10:48:36;;;;;;;7.90;3.75;;;;;;;28.84;30.56;101927.44;5249542;28;20032;-69
2021/06/14 10:51:14;;;;;;;5.47;3.53;;;;;;;29.01;31.93;101927.69;5250355;28;20074;-69
2021/06/14 10:53:52;;;;;;;7.57;3.33;;;;;;;28.98;30.03;101920.03;5245580;28;20028;-69
2021/06/14 10:56:25;;;;;;;5.80;2.80;;;;;;;29.12;29.50;101932.31;5249846;28;20029;-69
2021/06/14 10:59:04;;;;;;;4.68;3.00;;;;;;;28.84;30.04;101936.38;5249287;28;20051;-69
2021/06/14 11:01:41;;;;;;;12.38;3.83;;;;;;;29.07;31.21;101930.31;5250329;28;20032;-69
2021/06/14 11:04:25;;;;;;;7.13;3.22;;;;;;;29.15;30.60;101922.94;5249186;28;20663;-69
2021/06/14 11:06:57;;;;;;;9.35;3.00;;;;;;;29.32;30.11;101922.09;5252126;28;20040;-69
2021/06/14 11:09:38;;;;;;;5.95;3.05;;;;;;;29.66;30.46;101922.44;5254235;28;20032;-66
2021/06/14 11:12:11;;;;;;;5.38;3.10;;;;;;;29.57;28.65;101915.69;5250345;28;20028;-69
2021/06/14 11:14:45;;;;;;;5.70;3.22;;;;;;;29.70;28.89;101915.53;5247842;28;20043;-69
2021/06/14 11:17:17;;;;;;;7.28;3.25;;;;;;;29.62;28.72;101905.06;5252084;28;20027;-69
2021/06/14 11:20:07;;;;;;;6.13;2.80;;;;;;;29.66;28.09;101906.22;5248248;28;20044;-68
2021/06/14 11:22:44;;;;;;;4.82;2.50;;;;;;;29.76;29.51;101903.78;5254231;28;20032;-69
2021/06/14 11:25:26;;;;;;;6.55;3.30;;;;;;;29.94;28.29;101897.47;5249338;28;20654;-69
2021/06/14 11:28:01;;;;;;;5.80;3.33;;;;;;;30.20;27.93;101896.22;5245813;28;20614;-69
2021/06/14 11:30:35;;;;;;;6.85;2.95;;;;;;;29.74;26.92;101892.41;5254429;28;20506;-69
2021/06/14 11:33:09;;;;;;;4.82;2.70;;;;;;;29.99;27.29;101902.19;5253035;28;20528;-69
2021/06/14 11:35:46;;;;;;;5.60;2.72;;;;;;;30.05;28.02;101907.47;5253100;28;20049;-69
2021/06/14 11:38:20;;;;;;;6.82;2.70;;;;;;;29.92;27.47;101901.47;5254513;28;20120;-69
2021/06/14 11:40:57;;;;;;;13.73;3.33;;;;;;;30.00;27.08;101898.41;5255165;28;20029;-69
2021/06/14 11:43:28;;;;;;;4.05;2.80;;;;;;;30.24;27.06;101886.59;5249472;28;20067;-69
2021/06/14 11:45:59;;;;;;;6.87;2.80;;;;;;;30.44;28.54;101890.78;5248281;28;20511;-69
2021/06/14 11:48:33;;;;;;;4.67;2.67;;;;;;;30.44;28.70;101891.63;5246886;28;20035;-68
2021/06/14 11:51:13;;;;;;;8.38;3.13;;;;;;;30.44;26.62;101882.69;5256072;28;20302;-69
2021/06/14 11:53:57;;;;;;;6.43;2.60;;;;;;;30.35;26.67;101889.53;5251453;28;20039;-68
2021/06/14 11:56:33;;;;;;;5.75;2.78;;;;;;;30.06;25.06;101892.06;5241564;28;20052;-68